sensor_id;sensor_type;location;lat;lon;timestamp;P1;durP1;ratioP1;P2;durP2;ratioP2
4055;SDS011;2043;52.184;8.690;2023-09-18T00:00:08;12.57;;;6.83;;
4055;SDS011;2043;52.184;8.690;2023-09-18T00:02:38;12.33;;;6.90;;
4055;SDS011;2043;52.184;8.690;2023-09-18T00:05:06;11.10;;;6.63;;
4055;SDS011;2043;52.184;8.690;2023-09-18T00:07:33;10.27;;;6.30;;
4055;SDS011;2043;52.184;8.690;2023-09-18T00:10:00;8.20;;;6.63;;
4055;SDS011;2043;52.184;8.690;2023-09-18T00:12:27;17.03;;;8.00;;
4055;SDS011;2043;52.184;8.690;2023-09-18T00:14:53;13.63;;;7.73;;
4055;SDS011;2043;52.184;8.690;2023-09-18T00:17:21;13.00;;;7.00;;
4055;SDS011;2043;52.184;8.690;2023-09-18T00:19:49;12.90;;;8.20;;
4055;SDS011;2043;52.184;8.690;2023-09-18T00:22:18;15.73;;;8.40;;
4055;SDS011;2043;52.184;8.690;2023-09-18T00:24:44;12.03;;;9.20;;
4055;SDS011;2043;52.184;8.690;2023-09-18T00:27:13;14.50;;;8.20;;
4055;SDS011;2043;52.184;8.690;2023-09-18T00:29:40;11.17;;;7.90;;
4055;SDS011;2043;52.184;8.690;2023-09-18T00:32:07;12.63;;;8.03;;
4055;SDS011;2043;52.184;8.690;2023-09-18T00:34:34;14.37;;;7.47;;
4055;SDS011;2043;52.184;8.690;2023-09-18T00:37:01;16.10;;;8.50;;
4055;SDS011;2043;52.184;8.690;2023-09-18T00:39:28;12.90;;;8.37;;
4055;SDS011;2043;52.184;8.690;2023-09-18T00:41:55;15.13;;;8.97;;
4055;SDS011;2043;52.184;8.690;2023-09-18T00:44:22;12.63;;;9.40;;
4055;SDS011;2043;52.184;8.690;2023-09-18T00:46:50;14.60;;;8.50;;
4055;SDS011;2043;52.184;8.690;2023-09-18T00:49:17;12.20;;;8.27;;
4055;SDS011;2043;52.184;8.690;2023-09-18T00:51:46;16.53;;;8.43;;
4055;SDS011;2043;52.184;8.690;2023-09-18T00:54:14;14.97;;;8.30;;
4055;SDS011;2043;52.184;8.690;2023-09-18T00:56:45;13.83;;;8.60;;
4055;SDS011;2043;52.184;8.690;2023-09-18T00:59:14;12.03;;;8.27;;
4055;SDS011;2043;52.184;8.690;2023-09-18T01:01:41;17.80;;;8.90;;
4055;SDS011;2043;52.184;8.690;2023-09-18T01:04:09;14.10;;;8.60;;
4055;SDS011;2043;52.184;8.690;2023-09-18T01:06:36;20.03;;;8.50;;
4055;SDS011;2043;52.184;8.690;2023-09-18T01:09:04;13.43;;;8.90;;
4055;SDS011;2043;52.184;8.690;2023-09-18T01:11:50;11.00;;;7.80;;
4055;SDS011;2043;52.184;8.690;2023-09-18T01:17:35;16.90;;;8.23;;
4055;SDS011;2043;52.184;8.690;2023-09-18T01:20:10;10.83;;;7.70;;
4055;SDS011;2043;52.184;8.690;2023-09-18T01:22:38;10.90;;;8.10;;
4055;SDS011;2043;52.184;8.690;2023-09-18T01:25:05;12.77;;;8.37;;
4055;SDS011;2043;52.184;8.690;2023-09-18T01:27:33;14.27;;;8.23;;
4055;SDS011;2043;52.184;8.690;2023-09-18T01:30:00;12.53;;;8.33;;
4055;SDS011;2043;52.184;8.690;2023-09-18T01:32:28;18.90;;;8.07;;
4055;SDS011;2043;52.184;8.690;2023-09-18T01:34:59;12.10;;;7.73;;
4055;SDS011;2043;52.184;8.690;2023-09-18T01:37:29;12.50;;;8.80;;
4055;SDS011;2043;52.184;8.690;2023-09-18T01:39:56;10.90;;;7.70;;
4055;SDS011;2043;52.184;8.690;2023-09-18T01:42:26;10.63;;;8.10;;
4055;SDS011;2043;52.184;8.690;2023-09-18T01:44:54;12.83;;;8.90;;
4055;SDS011;2043;52.184;8.690;2023-09-18T01:47:22;15.03;;;8.83;;
4055;SDS011;2043;52.184;8.690;2023-09-18T01:49:54;12.13;;;8.80;;
4055;SDS011;2043;52.184;8.690;2023-09-18T01:52:22;15.30;;;8.10;;
4055;SDS011;2043;52.184;8.690;2023-09-18T01:54:49;10.93;;;7.47;;
4055;SDS011;2043;52.184;8.690;2023-09-18T01:57:16;12.43;;;8.33;;
4055;SDS011;2043;52.184;8.690;2023-09-18T01:59:43;16.47;;;8.40;;
4055;SDS011;2043;52.184;8.690;2023-09-18T02:02:12;26.03;;;9.10;;
4055;SDS011;2043;52.184;8.690;2023-09-18T02:04:54;15.00;;;8.67;;
4055;SDS011;2043;52.184;8.690;2023-09-18T02:07:35;11.47;;;8.10;;
4055;SDS011;2043;52.184;8.690;2023-09-18T02:10:02;11.13;;;7.23;;
4055;SDS011;2043;52.184;8.690;2023-09-18T02:12:29;11.27;;;7.70;;
4055;SDS011;2043;52.184;8.690;2023-09-18T02:14:56;14.67;;;7.30;;
4055;SDS011;2043;52.184;8.690;2023-09-18T02:17:25;12.33;;;7.20;;
4055;SDS011;2043;52.184;8.690;2023-09-18T02:19:52;8.97;;;6.80;;
4055;SDS011;2043;52.184;8.690;2023-09-18T02:22:18;12.30;;;7.77;;
4055;SDS011;2043;52.184;8.690;2023-09-18T02:24:45;12.83;;;7.50;;
4055;SDS011;2043;52.184;8.690;2023-09-18T02:27:12;12.77;;;7.57;;
4055;SDS011;2043;52.184;8.690;2023-09-18T02:29:44;10.77;;;7.40;;
4055;SDS011;2043;52.184;8.690;2023-09-18T02:32:10;10.83;;;7.43;;
4055;SDS011;2043;52.184;8.690;2023-09-18T02:34:38;12.33;;;7.83;;
4055;SDS011;2043;52.184;8.690;2023-09-18T02:37:05;14.57;;;7.57;;
4055;SDS011;2043;52.184;8.690;2023-09-18T02:39:33;13.87;;;7.33;;
4055;SDS011;2043;52.184;8.690;2023-09-18T02:41:59;9.53;;;7.27;;
4055;SDS011;2043;52.184;8.690;2023-09-18T02:44:26;15.50;;;7.63;;
4055;SDS011;2043;52.184;8.690;2023-09-18T02:46:53;15.77;;;7.77;;
4055;SDS011;2043;52.184;8.690;2023-09-18T02:49:20;12.50;;;7.80;;
4055;SDS011;2043;52.184;8.690;2023-09-18T02:51:47;14.67;;;7.80;;
4055;SDS011;2043;52.184;8.690;2023-09-18T02:54:16;10.00;;;7.10;;
4055;SDS011;2043;52.184;8.690;2023-09-18T02:56:42;11.40;;;7.23;;
4055;SDS011;2043;52.184;8.690;2023-09-18T02:59:10;9.87;;;6.90;;
4055;SDS011;2043;52.184;8.690;2023-09-18T03:01:38;14.13;;;6.83;;
4055;SDS011;2043;52.184;8.690;2023-09-18T03:04:05;10.63;;;6.93;;
4055;SDS011;2043;52.184;8.690;2023-09-18T03:06:33;11.30;;;7.57;;
4055;SDS011;2043;52.184;8.690;2023-09-18T03:09:00;13.77;;;7.57;;
4055;SDS011;2043;52.184;8.690;2023-09-18T03:11:28;11.77;;;7.20;;
4055;SDS011;2043;52.184;8.690;2023-09-18T03:13:55;11.70;;;6.90;;
4055;SDS011;2043;52.184;8.690;2023-09-18T03:16:22;16.47;;;7.23;;
4055;SDS011;2043;52.184;8.690;2023-09-18T03:18:49;17.10;;;7.10;;
4055;SDS011;2043;52.184;8.690;2023-09-18T03:21:17;17.10;;;7.47;;
4055;SDS011;2043;52.184;8.690;2023-09-18T03:23:44;13.97;;;7.60;;
4055;SDS011;2043;52.184;8.690;2023-09-18T03:26:11;14.03;;;7.47;;
4055;SDS011;2043;52.184;8.690;2023-09-18T03:28:37;19.70;;;7.77;;
4055;SDS011;2043;52.184;8.690;2023-09-18T03:31:04;12.43;;;7.87;;
4055;SDS011;2043;52.184;8.690;2023-09-18T03:33:33;14.73;;;7.23;;
4055;SDS011;2043;52.184;8.690;2023-09-18T03:36:00;15.63;;;8.07;;
4055;SDS011;2043;52.184;8.690;2023-09-18T03:38:27;15.80;;;8.50;;
4055;SDS011;2043;52.184;8.690;2023-09-18T03:40:54;16.83;;;7.60;;
4055;SDS011;2043;52.184;8.690;2023-09-18T03:43:21;13.23;;;7.60;;
4055;SDS011;2043;52.184;8.690;2023-09-18T03:45:47;14.67;;;7.80;;
4055;SDS011;2043;52.184;8.690;2023-09-18T03:48:14;22.90;;;7.63;;
4055;SDS011;2043;52.184;8.690;2023-09-18T03:50:41;11.40;;;6.70;;
4055;SDS011;2043;52.184;8.690;2023-09-18T03:53:09;14.50;;;7.70;;
4055;SDS011;2043;52.184;8.690;2023-09-18T03:55:37;16.90;;;7.77;;
4055;SDS011;2043;52.184;8.690;2023-09-18T03:58:04;12.43;;;7.00;;
4055;SDS011;2043;52.184;8.690;2023-09-18T04:00:31;9.83;;;6.67;;
4055;SDS011;2043;52.184;8.690;2023-09-18T04:02:58;11.43;;;6.80;;
4055;SDS011;2043;52.184;8.690;2023-09-18T04:05:25;14.03;;;6.70;;
4055;SDS011;2043;52.184;8.690;2023-09-18T04:07:53;13.07;;;7.50;;
4055;SDS011;2043;52.184;8.690;2023-09-18T04:10:20;10.90;;;6.30;;
4055;SDS011;2043;52.184;8.690;2023-09-18T04:12:50;13.30;;;6.23;;
4055;SDS011;2043;52.184;8.690;2023-09-18T04:15:18;10.80;;;6.23;;
4055;SDS011;2043;52.184;8.690;2023-09-18T04:17:46;18.33;;;6.50;;
4055;SDS011;2043;52.184;8.690;2023-09-18T04:20:14;16.67;;;6.10;;
4055;SDS011;2043;52.184;8.690;2023-09-18T04:22:42;10.97;;;6.03;;
4055;SDS011;2043;52.184;8.690;2023-09-18T04:25:11;17.60;;;5.77;;
4055;SDS011;2043;52.184;8.690;2023-09-18T04:27:39;16.37;;;6.50;;
4055;SDS011;2043;52.184;8.690;2023-09-18T04:30:06;9.60;;;5.90;;
4055;SDS011;2043;52.184;8.690;2023-09-18T04:32:36;13.30;;;5.53;;
4055;SDS011;2043;52.184;8.690;2023-09-18T04:35:04;14.37;;;6.20;;
4055;SDS011;2043;52.184;8.690;2023-09-18T04:37:33;7.87;;;5.67;;
4055;SDS011;2043;52.184;8.690;2023-09-18T04:40:05;14.53;;;6.50;;
4055;SDS011;2043;52.184;8.690;2023-09-18T04:42:36;9.30;;;5.73;;
4055;SDS011;2043;52.184;8.690;2023-09-18T04:45:04;10.30;;;6.37;;
4055;SDS011;2043;52.184;8.690;2023-09-18T04:47:31;9.87;;;6.27;;
4055;SDS011;2043;52.184;8.690;2023-09-18T04:49:58;11.63;;;6.23;;
4055;SDS011;2043;52.184;8.690;2023-09-18T04:52:25;9.80;;;5.93;;
4055;SDS011;2043;52.184;8.690;2023-09-18T04:54:52;9.63;;;6.07;;
4055;SDS011;2043;52.184;8.690;2023-09-18T04:57:20;12.60;;;6.63;;
4055;SDS011;2043;52.184;8.690;2023-09-18T04:59:49;10.00;;;6.07;;
4055;SDS011;2043;52.184;8.690;2023-09-18T05:02:35;12.10;;;6.10;;
4055;SDS011;2043;52.184;8.690;2023-09-18T05:05:02;13.03;;;6.10;;
4055;SDS011;2043;52.184;8.690;2023-09-18T05:07:30;9.57;;;5.70;;
4055;SDS011;2043;52.184;8.690;2023-09-18T05:09:58;10.73;;;6.73;;
4055;SDS011;2043;52.184;8.690;2023-09-18T05:12:25;11.50;;;6.47;;
4055;SDS011;2043;52.184;8.690;2023-09-18T05:14:52;8.03;;;6.30;;
4055;SDS011;2043;52.184;8.690;2023-09-18T05:17:19;9.97;;;5.83;;
4055;SDS011;2043;52.184;8.690;2023-09-18T05:19:46;12.47;;;5.93;;
4055;SDS011;2043;52.184;8.690;2023-09-18T05:22:13;14.00;;;6.37;;
4055;SDS011;2043;52.184;8.690;2023-09-18T05:24:40;9.20;;;5.80;;
4055;SDS011;2043;52.184;8.690;2023-09-18T05:27:07;9.63;;;6.23;;
4055;SDS011;2043;52.184;8.690;2023-09-18T05:29:34;13.43;;;7.33;;
4055;SDS011;2043;52.184;8.690;2023-09-18T05:32:03;9.53;;;6.20;;
4055;SDS011;2043;52.184;8.690;2023-09-18T05:34:31;21.63;;;6.40;;
4055;SDS011;2043;52.184;8.690;2023-09-18T05:36:58;10.10;;;6.67;;
4055;SDS011;2043;52.184;8.690;2023-09-18T05:39:25;12.63;;;6.83;;
4055;SDS011;2043;52.184;8.690;2023-09-18T05:41:52;11.40;;;6.90;;
4055;SDS011;2043;52.184;8.690;2023-09-18T05:44:19;17.00;;;6.17;;
4055;SDS011;2043;52.184;8.690;2023-09-18T05:46:46;12.90;;;7.03;;
4055;SDS011;2043;52.184;8.690;2023-09-18T05:49:13;14.60;;;8.30;;
4055;SDS011;2043;52.184;8.690;2023-09-18T05:51:40;14.60;;;8.10;;
4055;SDS011;2043;52.184;8.690;2023-09-18T05:54:07;11.30;;;7.70;;
4055;SDS011;2043;52.184;8.690;2023-09-18T05:56:34;11.17;;;8.20;;
4055;SDS011;2043;52.184;8.690;2023-09-18T05:59:01;13.37;;;7.33;;
4055;SDS011;2043;52.184;8.690;2023-09-18T06:01:27;13.70;;;7.03;;
4055;SDS011;2043;52.184;8.690;2023-09-18T06:03:55;13.40;;;7.30;;
4055;SDS011;2043;52.184;8.690;2023-09-18T06:06:22;11.20;;;7.37;;
4055;SDS011;2043;52.184;8.690;2023-09-18T06:08:48;10.70;;;7.17;;
4055;SDS011;2043;52.184;8.690;2023-09-18T06:11:15;15.60;;;7.87;;
4055;SDS011;2043;52.184;8.690;2023-09-18T06:13:44;11.63;;;7.40;;
4055;SDS011;2043;52.184;8.690;2023-09-18T06:16:10;11.90;;;7.80;;
4055;SDS011;2043;52.184;8.690;2023-09-18T06:18:38;13.13;;;7.97;;
4055;SDS011;2043;52.184;8.690;2023-09-18T06:21:05;10.87;;;7.87;;
4055;SDS011;2043;52.184;8.690;2023-09-18T06:23:32;11.10;;;6.93;;
4055;SDS011;2043;52.184;8.690;2023-09-18T06:25:59;14.17;;;7.20;;
4055;SDS011;2043;52.184;8.690;2023-09-18T06:28:26;15.50;;;7.33;;
4055;SDS011;2043;52.184;8.690;2023-09-18T06:30:53;12.10;;;7.37;;
4055;SDS011;2043;52.184;8.690;2023-09-18T06:33:21;12.23;;;7.37;;
4055;SDS011;2043;52.184;8.690;2023-09-18T06:35:48;11.03;;;7.23;;
4055;SDS011;2043;52.184;8.690;2023-09-18T06:38:15;13.17;;;6.50;;
4055;SDS011;2043;52.184;8.690;2023-09-18T06:40:42;12.43;;;6.90;;
4055;SDS011;2043;52.184;8.690;2023-09-18T06:43:09;14.50;;;7.10;;
4055;SDS011;2043;52.184;8.690;2023-09-18T06:45:36;8.60;;;6.70;;
4055;SDS011;2043;52.184;8.690;2023-09-18T06:48:04;8.00;;;6.40;;
4055;SDS011;2043;52.184;8.690;2023-09-18T06:50:31;18.20;;;6.60;;
4055;SDS011;2043;52.184;8.690;2023-09-18T06:52:59;8.20;;;6.47;;
4055;SDS011;2043;52.184;8.690;2023-09-18T06:55:26;9.07;;;6.40;;
4055;SDS011;2043;52.184;8.690;2023-09-18T06:57:53;10.97;;;6.40;;
4055;SDS011;2043;52.184;8.690;2023-09-18T07:00:20;12.20;;;6.70;;
4055;SDS011;2043;52.184;8.690;2023-09-18T07:02:47;11.43;;;6.23;;
4055;SDS011;2043;52.184;8.690;2023-09-18T07:05:16;17.07;;;6.63;;
4055;SDS011;2043;52.184;8.690;2023-09-18T07:07:43;10.87;;;7.10;;
4055;SDS011;2043;52.184;8.690;2023-09-18T07:10:10;9.43;;;6.53;;
4055;SDS011;2043;52.184;8.690;2023-09-18T07:12:37;12.00;;;6.57;;
4055;SDS011;2043;52.184;8.690;2023-09-18T07:15:04;12.20;;;5.90;;
4055;SDS011;2043;52.184;8.690;2023-09-18T07:17:34;13.07;;;6.90;;
4055;SDS011;2043;52.184;8.690;2023-09-18T07:20:02;10.97;;;6.33;;
4055;SDS011;2043;52.184;8.690;2023-09-18T07:22:40;10.60;;;6.80;;
4055;SDS011;2043;52.184;8.690;2023-09-18T07:25:08;10.53;;;6.77;;
4055;SDS011;2043;52.184;8.690;2023-09-18T07:27:35;11.07;;;7.10;;
4055;SDS011;2043;52.184;8.690;2023-09-18T07:30:05;9.20;;;6.23;;
4055;SDS011;2043;52.184;8.690;2023-09-18T07:32:32;8.60;;;6.40;;
4055;SDS011;2043;52.184;8.690;2023-09-18T07:35:04;8.23;;;6.30;;
4055;SDS011;2043;52.184;8.690;2023-09-18T07:37:33;12.60;;;5.87;;
4055;SDS011;2043;52.184;8.690;2023-09-18T07:40:00;16.00;;;7.13;;
4055;SDS011;2043;52.184;8.690;2023-09-18T07:42:27;8.77;;;6.33;;
4055;SDS011;2043;52.184;8.690;2023-09-18T07:44:55;12.33;;;6.20;;
4055;SDS011;2043;52.184;8.690;2023-09-18T07:47:24;7.70;;;5.43;;
4055;SDS011;2043;52.184;8.690;2023-09-18T07:49:52;11.93;;;6.13;;
4055;SDS011;2043;52.184;8.690;2023-09-18T07:52:20;15.03;;;6.43;;
4055;SDS011;2043;52.184;8.690;2023-09-18T07:54:47;12.03;;;5.43;;
4055;SDS011;2043;52.184;8.690;2023-09-18T07:57:15;14.77;;;5.93;;
4055;SDS011;2043;52.184;8.690;2023-09-18T07:59:42;9.87;;;5.83;;
4055;SDS011;2043;52.184;8.690;2023-09-18T08:02:09;16.27;;;5.90;;
4055;SDS011;2043;52.184;8.690;2023-09-18T08:04:36;11.83;;;5.40;;
4055;SDS011;2043;52.184;8.690;2023-09-18T08:07:03;15.70;;;6.10;;
4055;SDS011;2043;52.184;8.690;2023-09-18T08:09:33;13.40;;;4.80;;
4055;SDS011;2043;52.184;8.690;2023-09-18T08:12:03;12.90;;;4.87;;
4055;SDS011;2043;52.184;8.690;2023-09-18T08:14:30;7.40;;;4.07;;
4055;SDS011;2043;52.184;8.690;2023-09-18T08:16:58;9.60;;;4.03;;
4055;SDS011;2043;52.184;8.690;2023-09-18T08:19:26;12.37;;;4.30;;
4055;SDS011;2043;52.184;8.690;2023-09-18T08:21:54;7.77;;;3.40;;
4055;SDS011;2043;52.184;8.690;2023-09-18T08:24:22;15.17;;;4.03;;
4055;SDS011;2043;52.184;8.690;2023-09-18T08:26:49;22.43;;;3.73;;
4055;SDS011;2043;52.184;8.690;2023-09-18T08:29:16;14.37;;;3.83;;
4055;SDS011;2043;52.184;8.690;2023-09-18T08:31:44;10.13;;;3.40;;
4055;SDS011;2043;52.184;8.690;2023-09-18T08:34:11;11.30;;;3.83;;
4055;SDS011;2043;52.184;8.690;2023-09-18T08:36:38;10.47;;;3.33;;
4055;SDS011;2043;52.184;8.690;2023-09-18T08:39:05;11.17;;;3.90;;
4055;SDS011;2043;52.184;8.690;2023-09-18T08:41:33;17.37;;;3.60;;
4055;SDS011;2043;52.184;8.690;2023-09-18T08:44:02;13.43;;;3.20;;
4055;SDS011;2043;52.184;8.690;2023-09-18T08:46:30;15.30;;;3.60;;
4055;SDS011;2043;52.184;8.690;2023-09-18T08:48:59;9.67;;;3.20;;
4055;SDS011;2043;52.184;8.690;2023-09-18T08:51:27;13.57;;;3.73;;
4055;SDS011;2043;52.184;8.690;2023-09-18T08:53:54;11.57;;;3.40;;
4055;SDS011;2043;52.184;8.690;2023-09-18T08:56:22;10.60;;;3.40;;
4055;SDS011;2043;52.184;8.690;2023-09-18T08:58:50;17.30;;;3.80;;
4055;SDS011;2043;52.184;8.690;2023-09-18T09:01:17;9.23;;;3.00;;
4055;SDS011;2043;52.184;8.690;2023-09-18T09:03:44;10.53;;;2.80;;
4055;SDS011;2043;52.184;8.690;2023-09-18T09:06:12;14.63;;;3.33;;
4055;SDS011;2043;52.184;8.690;2023-09-18T09:08:39;24.33;;;3.40;;
4055;SDS011;2043;52.184;8.690;2023-09-18T09:11:06;7.77;;;2.97;;
4055;SDS011;2043;52.184;8.690;2023-09-18T09:13:33;9.60;;;2.97;;
4055;SDS011;2043;52.184;8.690;2023-09-18T09:16:11;10.70;;;3.13;;
4055;SDS011;2043;52.184;8.690;2023-09-18T09:18:48;11.80;;;3.50;;
4055;SDS011;2043;52.184;8.690;2023-09-18T09:21:18;9.23;;;3.00;;
4055;SDS011;2043;52.184;8.690;2023-09-18T09:26:21;10.53;;;2.90;;
4055;SDS011;2043;52.184;8.690;2023-09-18T09:28:49;14.93;;;3.40;;
4055;SDS011;2043;52.184;8.690;2023-09-18T09:31:27;9.70;;;3.10;;
4055;SDS011;2043;52.184;8.690;2023-09-18T09:33:55;14.53;;;4.03;;
4055;SDS011;2043;52.184;8.690;2023-09-18T09:36:24;11.00;;;3.10;;
4055;SDS011;2043;52.184;8.690;2023-09-18T09:38:54;12.90;;;3.33;;
4055;SDS011;2043;52.184;8.690;2023-09-18T09:41:26;13.00;;;3.40;;
4055;SDS011;2043;52.184;8.690;2023-09-18T09:43:56;12.30;;;3.80;;
4055;SDS011;2043;52.184;8.690;2023-09-18T09:46:24;13.37;;;2.83;;
4055;SDS011;2043;52.184;8.690;2023-09-18T09:49:01;8.00;;;2.97;;
4055;SDS011;2043;52.184;8.690;2023-09-18T09:51:32;6.83;;;2.47;;
4055;SDS011;2043;52.184;8.690;2023-09-18T09:54:00;8.30;;;2.50;;
4055;SDS011;2043;52.184;8.690;2023-09-18T09:56:40;10.43;;;2.70;;
4055;SDS011;2043;52.184;8.690;2023-09-18T09:59:11;8.97;;;2.77;;
4055;SDS011;2043;52.184;8.690;2023-09-18T10:01:40;12.67;;;2.87;;
4055;SDS011;2043;52.184;8.690;2023-09-18T10:04:14;9.20;;;2.43;;
4055;SDS011;2043;52.184;8.690;2023-09-18T10:06:53;7.93;;;2.87;;
4055;SDS011;2043;52.184;8.690;2023-09-18T10:09:25;14.43;;;2.80;;
4055;SDS011;2043;52.184;8.690;2023-09-18T10:11:54;6.33;;;2.60;;
4055;SDS011;2043;52.184;8.690;2023-09-18T10:14:29;5.83;;;2.47;;
4055;SDS011;2043;52.184;8.690;2023-09-18T10:17:20;7.73;;;2.50;;
4055;SDS011;2043;52.184;8.690;2023-09-18T10:22:36;9.87;;;2.43;;
4055;SDS011;2043;52.184;8.690;2023-09-18T10:25:07;12.17;;;3.30;;
4055;SDS011;2043;52.184;8.690;2023-09-18T10:27:39;7.10;;;2.70;;
4055;SDS011;2043;52.184;8.690;2023-09-18T10:30:07;5.57;;;2.43;;
4055;SDS011;2043;52.184;8.690;2023-09-18T10:32:40;11.67;;;2.50;;
4055;SDS011;2043;52.184;8.690;2023-09-18T10:35:07;15.13;;;2.93;;
4055;SDS011;2043;52.184;8.690;2023-09-18T10:37:36;10.07;;;3.40;;
4055;SDS011;2043;52.184;8.690;2023-09-18T10:40:05;10.07;;;3.00;;
4055;SDS011;2043;52.184;8.690;2023-09-18T10:42:35;7.43;;;2.47;;
4055;SDS011;2043;52.184;8.690;2023-09-18T10:45:10;10.73;;;3.20;;
4055;SDS011;2043;52.184;8.690;2023-09-18T10:47:38;12.47;;;3.10;;
4055;SDS011;2043;52.184;8.690;2023-09-18T10:50:07;29.70;;;18.93;;
4055;SDS011;2043;52.184;8.690;2023-09-18T10:52:36;9.57;;;4.30;;
4055;SDS011;2043;52.184;8.690;2023-09-18T10:55:13;9.27;;;3.00;;
4055;SDS011;2043;52.184;8.690;2023-09-18T10:57:59;11.57;;;3.10;;
4055;SDS011;2043;52.184;8.690;2023-09-18T11:00:30;8.40;;;3.30;;
4055;SDS011;2043;52.184;8.690;2023-09-18T11:03:09;8.20;;;2.70;;
4055;SDS011;2043;52.184;8.690;2023-09-18T11:05:40;6.67;;;3.00;;
4055;SDS011;2043;52.184;8.690;2023-09-18T11:10:55;10.63;;;3.03;;
4055;SDS011;2043;52.184;8.690;2023-09-18T11:13:40;13.60;;;3.30;;
4055;SDS011;2043;52.184;8.690;2023-09-18T11:21:30;9.10;;;3.00;;
4055;SDS011;2043;52.184;8.690;2023-09-18T11:23:59;7.97;;;2.67;;
4055;SDS011;2043;52.184;8.690;2023-09-18T11:26:30;8.57;;;3.10;;
4055;SDS011;2043;52.184;8.690;2023-09-18T11:29:01;5.17;;;2.90;;
4055;SDS011;2043;52.184;8.690;2023-09-18T11:34:24;7.53;;;4.10;;
4055;SDS011;2043;52.184;8.690;2023-09-18T11:36:55;10.70;;;3.50;;
4055;SDS011;2043;52.184;8.690;2023-09-18T11:42:06;9.97;;;3.60;;
4055;SDS011;2043;52.184;8.690;2023-09-18T11:44:34;7.93;;;3.60;;
4055;SDS011;2043;52.184;8.690;2023-09-18T11:47:03;7.27;;;3.47;;
4055;SDS011;2043;52.184;8.690;2023-09-18T11:52:22;6.17;;;3.10;;
4055;SDS011;2043;52.184;8.690;2023-09-18T11:54:51;6.67;;;3.37;;
4055;SDS011;2043;52.184;8.690;2023-09-18T11:57:19;10.67;;;2.90;;
4055;SDS011;2043;52.184;8.690;2023-09-18T11:59:46;7.70;;;2.73;;
4055;SDS011;2043;52.184;8.690;2023-09-18T12:02:14;9.43;;;3.27;;
4055;SDS011;2043;52.184;8.690;2023-09-18T12:05:09;16.43;;;3.23;;
4055;SDS011;2043;52.184;8.690;2023-09-18T12:07:42;9.70;;;2.70;;
4055;SDS011;2043;52.184;8.690;2023-09-18T12:10:16;13.03;;;3.60;;
4055;SDS011;2043;52.184;8.690;2023-09-18T12:12:44;5.83;;;2.70;;
4055;SDS011;2043;52.184;8.690;2023-09-18T12:15:12;10.37;;;2.70;;
4055;SDS011;2043;52.184;8.690;2023-09-18T12:17:53;9.20;;;2.93;;
4055;SDS011;2043;52.184;8.690;2023-09-18T12:20:21;5.30;;;2.70;;
4055;SDS011;2043;52.184;8.690;2023-09-18T12:22:49;13.63;;;3.00;;
4055;SDS011;2043;52.184;8.690;2023-09-18T12:25:17;7.93;;;3.17;;
4055;SDS011;2043;52.184;8.690;2023-09-18T12:27:45;9.67;;;2.83;;
4055;SDS011;2043;52.184;8.690;2023-09-18T12:30:12;6.83;;;2.47;;
4055;SDS011;2043;52.184;8.690;2023-09-18T12:32:46;9.50;;;2.90;;
4055;SDS011;2043;52.184;8.690;2023-09-18T12:35:17;6.60;;;2.93;;
4055;SDS011;2043;52.184;8.690;2023-09-18T12:37:45;8.47;;;2.77;;
4055;SDS011;2043;52.184;8.690;2023-09-18T12:40:21;7.27;;;2.80;;
4055;SDS011;2043;52.184;8.690;2023-09-18T12:42:56;6.67;;;2.90;;
4055;SDS011;2043;52.184;8.690;2023-09-18T12:45:27;5.07;;;2.60;;
4055;SDS011;2043;52.184;8.690;2023-09-18T12:47:56;14.33;;;3.10;;
4055;SDS011;2043;52.184;8.690;2023-09-18T12:50:25;6.53;;;2.47;;
4055;SDS011;2043;52.184;8.690;2023-09-18T12:52:52;5.57;;;2.50;;
4055;SDS011;2043;52.184;8.690;2023-09-18T12:55:20;7.23;;;3.40;;
4055;SDS011;2043;52.184;8.690;2023-09-18T12:57:48;5.80;;;2.30;;
4055;SDS011;2043;52.184;8.690;2023-09-18T13:00:18;16.80;;;3.27;;
4055;SDS011;2043;52.184;8.690;2023-09-18T13:02:53;6.03;;;2.43;;
4055;SDS011;2043;52.184;8.690;2023-09-18T13:05:23;7.20;;;2.50;;
4055;SDS011;2043;52.184;8.690;2023-09-18T13:08:02;8.00;;;2.70;;
4055;SDS011;2043;52.184;8.690;2023-09-18T13:10:40;6.27;;;2.43;;
4055;SDS011;2043;52.184;8.690;2023-09-18T13:13:16;6.10;;;2.40;;
4055;SDS011;2043;52.184;8.690;2023-09-18T13:15:48;6.00;;;2.37;;
4055;SDS011;2043;52.184;8.690;2023-09-18T13:18:18;7.37;;;2.37;;
4055;SDS011;2043;52.184;8.690;2023-09-18T13:20:45;9.50;;;2.20;;
4055;SDS011;2043;52.184;8.690;2023-09-18T13:23:12;8.60;;;2.60;;
4055;SDS011;2043;52.184;8.690;2023-09-18T13:25:40;11.23;;;2.57;;
4055;SDS011;2043;52.184;8.690;2023-09-18T13:28:10;8.33;;;2.70;;
4055;SDS011;2043;52.184;8.690;2023-09-18T13:30:39;4.43;;;2.23;;
4055;SDS011;2043;52.184;8.690;2023-09-18T13:33:11;6.90;;;2.20;;
4055;SDS011;2043;52.184;8.690;2023-09-18T13:35:39;13.03;;;2.83;;
4055;SDS011;2043;52.184;8.690;2023-09-18T13:38:08;5.30;;;2.50;;
4055;SDS011;2043;52.184;8.690;2023-09-18T13:40:45;6.10;;;2.20;;
4055;SDS011;2043;52.184;8.690;2023-09-18T13:43:13;9.67;;;2.37;;
4055;SDS011;2043;52.184;8.690;2023-09-18T13:45:45;4.10;;;2.03;;
4055;SDS011;2043;52.184;8.690;2023-09-18T13:48:12;5.13;;;2.30;;
4055;SDS011;2043;52.184;8.690;2023-09-18T13:50:39;12.57;;;2.60;;
4055;SDS011;2043;52.184;8.690;2023-09-18T13:53:06;5.20;;;2.50;;
4055;SDS011;2043;52.184;8.690;2023-09-18T13:55:33;6.07;;;2.30;;
4055;SDS011;2043;52.184;8.690;2023-09-18T13:58:01;5.60;;;2.20;;
4055;SDS011;2043;52.184;8.690;2023-09-18T14:00:32;10.57;;;2.47;;
4055;SDS011;2043;52.184;8.690;2023-09-18T14:02:59;12.00;;;2.50;;
4055;SDS011;2043;52.184;8.690;2023-09-18T14:05:26;4.90;;;2.47;;
4055;SDS011;2043;52.184;8.690;2023-09-18T14:07:54;4.80;;;2.07;;
4055;SDS011;2043;52.184;8.690;2023-09-18T14:10:27;6.27;;;2.40;;
4055;SDS011;2043;52.184;8.690;2023-09-18T14:12:54;5.80;;;2.47;;
4055;SDS011;2043;52.184;8.690;2023-09-18T14:15:21;4.33;;;2.20;;
4055;SDS011;2043;52.184;8.690;2023-09-18T14:17:48;5.00;;;2.37;;
4055;SDS011;2043;52.184;8.690;2023-09-18T14:20:15;4.93;;;2.20;;
4055;SDS011;2043;52.184;8.690;2023-09-18T14:22:46;6.87;;;2.30;;
4055;SDS011;2043;52.184;8.690;2023-09-18T14:25:16;7.90;;;2.50;;
4055;SDS011;2043;52.184;8.690;2023-09-18T14:27:46;4.60;;;2.23;;
4055;SDS011;2043;52.184;8.690;2023-09-18T14:30:13;6.90;;;2.43;;
4055;SDS011;2043;52.184;8.690;2023-09-18T14:32:40;4.13;;;2.00;;
4055;SDS011;2043;52.184;8.690;2023-09-18T14:35:08;6.07;;;2.47;;
4055;SDS011;2043;52.184;8.690;2023-09-18T14:37:36;6.00;;;2.27;;
4055;SDS011;2043;52.184;8.690;2023-09-18T14:40:04;5.13;;;2.20;;
4055;SDS011;2043;52.184;8.690;2023-09-18T14:42:32;5.63;;;2.23;;
4055;SDS011;2043;52.184;8.690;2023-09-18T14:44:59;6.27;;;2.20;;
4055;SDS011;2043;52.184;8.690;2023-09-18T14:47:28;9.80;;;2.33;;
4055;SDS011;2043;52.184;8.690;2023-09-18T14:49:55;5.13;;;1.97;;
4055;SDS011;2043;52.184;8.690;2023-09-18T14:52:24;7.23;;;5.23;;
4055;SDS011;2043;52.184;8.690;2023-09-18T14:54:52;5.83;;;2.23;;
4055;SDS011;2043;52.184;8.690;2023-09-18T14:57:19;6.00;;;2.40;;
4055;SDS011;2043;52.184;8.690;2023-09-18T14:59:46;6.80;;;2.33;;
4055;SDS011;2043;52.184;8.690;2023-09-18T15:02:14;5.77;;;2.17;;
4055;SDS011;2043;52.184;8.690;2023-09-18T15:04:42;5.43;;;2.30;;
4055;SDS011;2043;52.184;8.690;2023-09-18T15:07:13;7.60;;;2.07;;
4055;SDS011;2043;52.184;8.690;2023-09-18T15:09:40;5.03;;;2.10;;
4055;SDS011;2043;52.184;8.690;2023-09-18T15:12:07;7.83;;;2.50;;
4055;SDS011;2043;52.184;8.690;2023-09-18T15:14:35;3.83;;;2.10;;
4055;SDS011;2043;52.184;8.690;2023-09-18T15:17:03;4.43;;;2.20;;
4055;SDS011;2043;52.184;8.690;2023-09-18T15:19:30;5.23;;;2.20;;
4055;SDS011;2043;52.184;8.690;2023-09-18T15:21:57;4.67;;;2.27;;
4055;SDS011;2043;52.184;8.690;2023-09-18T15:24:25;4.10;;;2.23;;
4055;SDS011;2043;52.184;8.690;2023-09-18T15:26:52;7.23;;;2.40;;
4055;SDS011;2043;52.184;8.690;2023-09-18T15:29:19;5.83;;;2.37;;
4055;SDS011;2043;52.184;8.690;2023-09-18T15:31:46;4.40;;;2.10;;
4055;SDS011;2043;52.184;8.690;2023-09-18T15:34:13;4.47;;;1.77;;
4055;SDS011;2043;52.184;8.690;2023-09-18T15:36:40;8.03;;;2.60;;
4055;SDS011;2043;52.184;8.690;2023-09-18T15:39:07;5.23;;;2.27;;
4055;SDS011;2043;52.184;8.690;2023-09-18T15:41:35;4.97;;;2.40;;